createdAt,value
2017-09-05T00:00:25.899Z,13.39
2017-09-05T00:01:36.192Z,13.26
2017-09-05T00:02:46.392Z,13.27
2017-09-05T00:03:56.346Z,13.23
2017-09-05T00:05:06.312Z,13.24
2017-09-05T00:06:16.585Z,13.24
2017-09-05T00:07:26.549Z,13.19
2017-09-05T00:08:36.772Z,13.26
2017-09-05T00:09:47.033Z,13.2
2017-09-05T00:10:56.985Z,13.21
2017-09-05T00:12:07.256Z,13.21
2017-09-05T00:13:17.220Z,13.12
2017-09-05T00:14:27.127Z,13.11
2017-09-05T00:15:37.405Z,13.13
2017-09-05T00:16:47.673Z,13.16
2017-09-05T00:17:57.632Z,13.13
2017-09-05T00:19:07.601Z,13.09
2017-09-05T00:20:18.127Z,13.06
2017-09-05T00:21:28.097Z,13.01
2017-09-05T00:22:38.381Z,13.03
2017-09-05T00:23:48.673Z,12.99
2017-09-05T00:24:58.941Z,12.95
2017-09-05T00:26:09.468Z,13.05
2017-09-05T00:27:19.740Z,13.01
2017-09-05T00:28:30.016Z,12.93
2017-09-05T00:29:39.977Z,12.93
2017-09-05T00:30:50.281Z,12.94
2017-09-05T00:32:00.486Z,12.99
2017-09-05T00:33:10.437Z,12.98
2017-09-05T00:34:20.709Z,13.02
2017-09-05T00:35:30.654Z,12.94
2017-09-05T00:36:40.605Z,12.95
2017-09-05T00:37:51.140Z,12.93
2017-09-05T00:39:01.416Z,12.9
2017-09-05T00:40:11.378Z,12.95
2017-09-05T00:41:21.645Z,12.94
2017-09-05T00:42:31.912Z,12.94
2017-09-05T00:43:42.442Z,12.93
2017-09-05T00:44:52.399Z,12.9
2017-09-05T00:46:02.341Z,12.94
2017-09-05T00:47:12.618Z,12.98
2017-09-05T00:48:22.893Z,12.94
2017-09-05T00:49:33.100Z,12.93
2017-09-05T00:50:43.064Z,12.93
2017-09-05T00:51:53.336Z,12.99
2017-09-05T00:53:03.297Z,12.93
2017-09-05T00:54:13.253Z,12.94
2017-09-05T00:55:23.777Z,12.93
2017-09-05T00:56:33.725Z,12.93
2017-09-05T00:57:43.695Z,12.94
2017-09-05T00:58:53.992Z,12.9
2017-09-05T01:00:03.958Z,12.91
2017-09-05T01:01:14.174Z,12.91
2017-09-05T01:02:24.126Z,12.83
2017-09-05T01:03:34.103Z,12.88
2017-09-05T01:04:44.370Z,12.94
2017-09-05T01:05:54.640Z,12.83
2017-09-05T01:07:04.840Z,12.93
2017-09-05T01:08:14.785Z,12.78
2017-09-05T01:09:25.069Z,12.9
2017-09-05T01:10:35.348Z,12.98
2017-09-05T01:11:45.323Z,12.93
2017-09-05T01:12:55.531Z,12.99
2017-09-05T01:14:05.801Z,12.88
2017-09-05T01:15:16.076Z,12.9
2017-09-05T01:16:26.353Z,12.9
2017-09-05T01:17:36.003Z,12.88
2017-09-05T01:18:46.519Z,12.99
2017-09-05T01:19:56.804Z,12.9
2017-09-05T01:21:06.774Z,12.83
2017-09-05T01:22:17.040Z,12.88
2017-09-05T01:23:27.319Z,12.86
2017-09-05T01:24:37.849Z,12.83
2017-09-05T01:25:47.805Z,12.8
2017-09-05T01:26:58.066Z,12.78
2017-09-05T01:28:08.346Z,12.9
2017-09-05T01:29:18.615Z,12.87
2017-09-05T01:30:28.826Z,12.83
2017-09-05T01:31:39.104Z,12.78
2017-09-05T01:32:49.068Z,12.83
2017-09-05T01:33:59.033Z,12.73
2017-09-05T01:35:09.324Z,12.7
2017-09-05T01:36:19.839Z,12.76
2017-09-05T01:37:29.787Z,12.76
2017-09-05T01:38:40.063Z,12.75
2017-09-05T01:39:50.324Z,12.63
2017-09-05T01:40:59.965Z,12.76
2017-09-05T01:42:10.490Z,12.62
2017-09-05T01:43:20.453Z,12.61
2017-09-05T01:44:30.082Z,12.47
2017-09-05T01:45:40.348Z,12.55
2017-09-05T01:46:50.314Z,12.53
2017-09-05T01:48:00.202Z,12.48
2017-09-05T01:49:10.476Z,12.48
2017-09-05T01:50:20.432Z,12.45
2017-09-05T01:51:30.398Z,12.54
2017-09-05T01:52:40.354Z,12.5
2017-09-05T01:53:50.882Z,12.5
2017-09-05T01:55:01.143Z,12.43
2017-09-05T01:56:11.396Z,12.37
2017-09-05T01:57:21.687Z,12.37
2017-09-05T01:58:31.968Z,12.36
2017-09-05T01:59:42.181Z,12.39
2017-09-05T02:00:52.448Z,12.45
2017-09-05T02:02:02.740Z,12.39
2017-09-05T02:03:12.732Z,12.5
2017-09-05T02:04:22.703Z,12.48
2017-09-05T02:05:32.897Z,12.53
2017-09-05T02:06:43.169Z,12.47
2017-09-05T02:07:52.806Z,12.51
2017-09-05T02:09:02.755Z,12.53
2017-09-05T02:10:13.036Z,12.62
2017-09-05T02:11:22.932Z,12.66
2017-09-05T02:12:32.890Z,12.62
2017-09-05T02:13:43.166Z,12.63
2017-09-05T02:14:53.125Z,12.58
2017-09-05T02:16:03.077Z,12.68
2017-09-05T02:17:13.606Z,12.68
2017-09-05T02:18:23.880Z,12.61
2017-09-05T02:19:33.522Z,12.62
2017-09-05T02:20:43.806Z,12.65
2017-09-05T02:21:53.755Z,12.65
2017-09-05T02:23:04.293Z,12.51
2017-09-05T02:24:14.280Z,12.48
2017-09-05T02:25:24.553Z,12.51
2017-09-05T02:26:34.507Z,12.5
2017-09-05T02:27:44.151Z,12.61
2017-09-05T02:28:54.711Z,12.5
2017-09-05T02:30:05.003Z,12.55
2017-09-05T02:31:15.283Z,12.53
2017-09-05T02:32:25.579Z,12.5
2017-09-05T02:33:35.851Z,12.5
2017-09-05T02:34:46.378Z,12.53
2017-09-05T02:35:56.643Z,12.53
2017-09-05T02:37:06.605Z,12.5
2017-09-05T02:38:16.247Z,12.53
2017-09-05T02:39:26.536Z,12.5
2017-09-05T02:40:37.051Z,12.47
2017-09-05T02:41:47.007Z,12.44
2017-09-05T02:42:56.962Z,12.4
2017-09-05T02:44:06.916Z,12.43
2017-09-05T02:45:17.187Z,12.36
2017-09-05T02:46:27.700Z,12.39
2017-09-05T02:47:37.341Z,12.37
2017-09-05T02:48:47.296Z,12.43
2017-09-05T02:49:57.577Z,12.32
2017-09-05T02:51:07.538Z,12.36
2017-09-05T02:52:18.065Z,12.35
2017-09-05T02:53:28.326Z,12.39
2017-09-05T02:54:38.602Z,12.33
2017-09-05T02:55:48.889Z,12.33
2017-09-05T02:56:59.174Z,12.3
2017-09-05T02:58:09.685Z,12.32
2017-09-05T02:59:19.652Z,12.32
2017-09-05T03:00:29.619Z,12.25
2017-09-05T03:01:39.572Z,12.25
2017-09-05T03:02:49.214Z,12.18
2017-09-05T03:03:59.412Z,12.2
2017-09-05T03:05:09.367Z,12.12
2017-09-05T03:06:19.643Z,12.17
2017-09-05T03:07:29.613Z,12.18
2017-09-05T03:08:39.250Z,12.11
2017-09-05T03:09:49.768Z,12.07
2017-09-05T03:11:00.027Z,12.11
2017-09-05T03:12:09.679Z,12.08
2017-09-05T03:13:19.637Z,12.08
2017-09-05T03:14:29.912Z,11.97
2017-09-05T03:15:40.445Z,11.95
2017-09-05T03:16:50.404Z,11.96
2017-09-05T03:18:00.349Z,11.99
2017-09-05T03:19:10.616Z,12.03
2017-09-05T03:20:20.558Z,12.05
2017-09-05T03:21:30.767Z,11.95
2017-09-05T03:22:40.732Z,11.93
2017-09-05T03:23:50.681Z,11.95
2017-09-05T03:25:00.954Z,11.99
2017-09-05T03:26:11.230Z,11.95
2017-09-05T03:27:21.747Z,11.89
2017-09-05T03:28:32.014Z,11.88
2017-09-05T03:29:42.291Z,11.86
2017-09-05T03:30:52.562Z,11.88
2017-09-05T03:32:02.839Z,11.86
2017-09-05T03:33:13.366Z,11.78
2017-09-05T03:34:23.640Z,11.78
2017-09-05T03:35:33.275Z,11.76
2017-09-05T03:36:43.552Z,11.77
2017-09-05T03:37:54.426Z,11.81
2017-09-05T03:39:04.969Z,11.86
2017-09-05T03:40:14.934Z,11.77
2017-09-05T03:41:25.221Z,11.81
2017-09-05T03:42:35.491Z,11.74
2017-09-05T03:43:45.786Z,11.83
2017-09-05T03:44:55.992Z,11.8
2017-09-05T03:46:06.267Z,11.8
2017-09-05T03:47:16.560Z,11.73
2017-09-05T03:48:26.821Z,11.74
2017-09-05T03:49:36.779Z,11.67
2017-09-05T03:50:47.308Z,11.62
2017-09-05T03:51:57.268Z,11.68
2017-09-05T03:53:07.208Z,11.58
2017-09-05T03:54:17.485Z,11.58
2017-09-05T03:55:27.760Z,11.56
2017-09-05T03:56:38.285Z,11.41
2017-09-05T03:57:48.549Z,11.45
2017-09-05T03:58:58.510Z,11.48
2017-09-05T04:00:08.775Z,11.44
2017-09-05T04:01:19.039Z,11.48
2017-09-05T04:02:29.245Z,11.4
2017-09-05T04:03:39.199Z,11.49
2017-09-05T04:04:49.145Z,11.4
2017-09-05T04:05:59.421Z,11.45
2017-09-05T04:07:09.387Z,11.43
2017-09-05T04:08:19.944Z,11.41
2017-09-05T04:09:30.212Z,11.43
2017-09-05T04:10:40.478Z,11.41
2017-09-05T04:11:50.354Z,11.37
2017-09-05T04:13:00.312Z,11.38
2017-09-05T04:14:10.831Z,11.35
2017-09-05T04:15:20.456Z,11.35
2017-09-05T04:16:30.738Z,11.31
2017-09-05T04:17:40.687Z,11.37
2017-09-05T04:18:50.320Z,11.41
2017-09-05T04:20:00.228Z,11.4
2017-09-05T04:21:10.542Z,11.27
2017-09-05T04:22:20.814Z,11.45
2017-09-05T04:23:30.772Z,11.23
2017-09-05T04:24:40.732Z,11.35
2017-09-05T04:25:50.939Z,11.37
2017-09-05T04:27:01.213Z,11.38
2017-09-05T04:28:11.488Z,11.37
2017-09-05T04:29:21.741Z,11.3
2017-09-05T04:30:31.696Z,11.33
2017-09-05T04:31:42.229Z,11.33
2017-09-05T04:32:52.494Z,11.34
2017-09-05T04:34:02.766Z,11.4
2017-09-05T04:35:12.724Z,11.4
2017-09-05T04:36:22.991Z,11.43
2017-09-05T04:37:33.221Z,11.45
2017-09-05T04:38:43.489Z,11.48
2017-09-05T04:39:53.151Z,11.38
2017-09-05T04:41:03.428Z,11.4
2017-09-05T04:42:13.715Z,11.44
2017-09-05T04:43:23.941Z,11.4
2017-09-05T04:44:34.201Z,11.33
2017-09-05T04:45:44.172Z,11.41
2017-09-05T04:46:54.438Z,11.38
2017-09-05T04:48:04.073Z,11.35
2017-09-05T04:49:14.598Z,11.35
2017-09-05T04:50:24.544Z,11.43
2017-09-05T04:51:34.512Z,11.41
2017-09-05T04:52:44.476Z,11.41
2017-09-05T04:53:54.430Z,11.41
2017-09-05T04:55:04.627Z,11.4
2017-09-05T04:56:14.579Z,11.43
2017-09-05T04:57:24.872Z,11.43
2017-09-05T04:58:35.171Z,11.41
2017-09-05T04:59:45.444Z,11.44
2017-09-05T05:00:56.004Z,11.44
2017-09-05T05:02:06.281Z,11.44
2017-09-05T05:03:16.562Z,11.48
2017-09-05T05:04:26.854Z,11.43
2017-09-05T05:05:37.121Z,11.41
2017-09-05T05:06:47.324Z,11.41
2017-09-05T05:07:57.268Z,11.44
2017-09-05T05:09:07.214Z,11.51
2017-09-05T05:10:16.553Z,11.45
2017-09-05T05:11:26.525Z,11.44
2017-09-05T05:12:37.052Z,11.48
2017-09-05T05:13:47.002Z,11.4
2017-09-05T05:14:57.290Z,11.51
2017-09-05T05:16:07.575Z,11.45
2017-09-05T05:17:17.523Z,11.4
2017-09-05T05:18:28.049Z,11.44
2017-09-05T05:19:38.333Z,11.45
2017-09-05T05:20:48.626Z,11.44
2017-09-05T05:21:58.252Z,11.45
2017-09-05T05:23:08.526Z,11.49
2017-09-05T05:24:18.729Z,11.48
2017-09-05T05:25:28.374Z,11.52
2017-09-05T05:26:38.333Z,11.56
2017-09-05T05:27:48.610Z,11.52
2017-09-05T05:28:58.580Z,11.6
2017-09-05T05:30:08.802Z,11.63
2017-09-05T05:31:18.757Z,11.63
2017-09-05T05:32:29.029Z,11.62
2017-09-05T05:33:38.667Z,11.63
2017-09-05T05:34:48.945Z,11.73
2017-09-05T05:35:59.487Z,11.77
2017-09-05T05:37:09.761Z,11.74
2017-09-05T05:38:19.722Z,11.76
2017-09-05T05:39:30.010Z,11.83
2017-09-05T05:40:39.647Z,11.88
2017-09-05T05:41:50.198Z,11.86
2017-09-05T05:43:00.467Z,11.89
2017-09-05T05:44:10.755Z,11.88
2017-09-05T05:45:20.704Z,11.95
2017-09-05T05:46:31.003Z,12.02
2017-09-05T05:47:40.899Z,11.99
2017-09-05T05:48:50.873Z,12.02
2017-09-05T05:50:01.141Z,11.96
2017-09-05T05:51:10.781Z,12.08
2017-09-05T05:52:21.075Z,12.05
2017-09-05T05:53:31.610Z,12.18
2017-09-05T05:54:42.108Z,12.2
2017-09-05T05:55:52.096Z,12.28
2017-09-05T05:57:02.363Z,12.18
2017-09-05T05:58:12.655Z,12.28
2017-09-05T05:59:22.871Z,12.3
2017-09-05T06:00:32.837Z,12.39
2017-09-05T06:01:42.505Z,12.33
2017-09-05T06:02:52.809Z,12.39
2017-09-05T06:04:02.770Z,12.4
2017-09-05T06:05:13.303Z,12.4
2017-09-05T06:06:22.943Z,12.45
2017-09-05T06:07:33.209Z,12.48
2017-09-05T06:08:43.172Z,12.53
2017-09-05T06:09:53.453Z,12.54
2017-09-05T06:11:03.971Z,12.62
2017-09-05T06:12:13.929Z,12.61
2017-09-05T06:13:23.558Z,12.7
2017-09-05T06:14:33.498Z,12.75
2017-09-05T06:15:43.468Z,12.73
2017-09-05T06:16:54.003Z,12.75
2017-09-05T06:18:04.282Z,12.87
2017-09-05T06:19:14.235Z,12.84
2017-09-05T06:20:24.200Z,12.95
2017-09-05T06:21:34.500Z,12.83
2017-09-05T06:22:45.061Z,12.91
2017-09-05T06:23:55.338Z,12.98
2017-09-05T06:25:05.312Z,13.05
2017-09-05T06:26:15.276Z,13.05
2017-09-05T06:27:25.564Z,13.06
2017-09-05T06:28:36.085Z,13.13
2017-09-05T06:29:46.049Z,13.19
2017-09-05T06:30:56.352Z,13.28
2017-09-05T06:32:06.654Z,13.23
2017-09-05T06:33:16.938Z,13.33
2017-09-05T06:34:27.457Z,13.31
2017-09-05T06:35:37.732Z,13.31
2017-09-05T06:36:47.688Z,13.43
2017-09-05T06:37:57.338Z,13.47
2017-09-05T06:39:07.619Z,13.52
2017-09-05T06:40:18.156Z,13.55
2017-09-05T06:41:28.441Z,13.61
2017-09-05T06:42:38.412Z,13.61
2017-09-05T06:43:48.690Z,13.65
2017-09-05T06:44:58.949Z,13.65
2017-09-05T06:46:09.480Z,13.75
2017-09-05T06:47:19.737Z,13.73
2017-09-05T06:48:30.011Z,13.91
2017-09-05T06:49:39.982Z,13.91
2017-09-05T06:50:50.255Z,14.03
2017-09-05T06:52:00.797Z,13.97
2017-09-05T06:53:11.106Z,13.95
2017-09-05T06:54:21.415Z,14
2017-09-05T06:55:30.757Z,14.07
2017-09-05T06:56:41.053Z,14.12
2017-09-05T06:57:51.300Z,14.2
2017-09-05T06:59:01.588Z,14.26
2017-09-05T07:00:11.874Z,14.37
2017-09-05T07:01:22.160Z,14.41
2017-09-05T07:02:32.121Z,14.49
2017-09-05T07:03:42.006Z,14.49
2017-09-05T07:04:52.337Z,14.62
2017-09-05T07:06:02.632Z,14.66
2017-09-05T07:07:12.914Z,14.77
2017-09-05T07:08:23.201Z,14.82
2017-09-05T07:09:33.738Z,14.87
2017-09-05T07:10:43.702Z,14.93
2017-09-05T07:11:53.967Z,14.87
2017-09-05T07:13:04.229Z,14.96
2017-09-05T07:14:14.497Z,15.07
2017-09-05T07:15:24.755Z,15.04
2017-09-05T07:16:35.023Z,15.08
2017-09-05T07:17:45.300Z,15.12
2017-09-05T07:18:54.619Z,15.18
2017-09-05T07:20:04.911Z,15.17
2017-09-05T07:21:15.134Z,15.23
2017-09-05T07:22:25.097Z,15.37
2017-09-05T07:23:35.391Z,15.29
2017-09-05T07:24:45.341Z,15.52
2017-09-05T07:25:55.635Z,15.51
2017-09-05T07:27:05.217Z,15.66
2017-09-05T07:28:15.494Z,15.72
2017-09-05T07:29:25.466Z,15.78
2017-09-05T07:30:35.424Z,15.75
2017-09-05T07:31:45.408Z,15.85
2017-09-05T07:32:55.970Z,15.99
2017-09-05T07:34:05.938Z,15.96
2017-09-05T07:35:16.234Z,16.03
2017-09-05T07:36:26.525Z,16.12
2017-09-05T07:37:36.791Z,16.1
2017-09-05T07:38:47.322Z,16.26
2017-09-05T07:39:57.599Z,16.25
2017-09-05T07:41:07.900Z,16.25
2017-09-05T07:42:18.223Z,16.44
2017-09-05T07:43:28.176Z,16.47
2017-09-05T07:44:38.704Z,16.4
2017-09-05T07:45:48.675Z,16.49
2017-09-05T07:46:58.966Z,16.5
2017-09-05T07:48:09.241Z,16.49
2017-09-05T07:49:19.533Z,16.62
2017-09-05T07:50:30.056Z,16.72
2017-09-05T07:51:40.340Z,16.76
2017-09-05T07:52:50.284Z,16.82
2017-09-05T07:54:00.275Z,16.95
2017-09-05T07:55:10.587Z,16.94
2017-09-05T07:56:20.795Z,16.89
2017-09-05T07:57:31.071Z,16.99
2017-09-05T07:58:41.350Z,16.95
2017-09-05T07:59:51.316Z,16.98
2017-09-05T08:01:01.600Z,17.19
2017-09-05T08:02:12.141Z,17.19
2017-09-05T08:03:22.113Z,17.24
2017-09-05T08:04:32.392Z,17.34
2017-09-05T08:05:42.675Z,17.34
2017-09-05T08:06:52.962Z,17.41
2017-09-05T08:08:03.186Z,17.49
2017-09-05T08:09:13.475Z,17.53
2017-09-05T08:10:22.814Z,17.53
2017-09-05T08:11:33.126Z,17.59
2017-09-05T08:12:43.449Z,17.65
2017-09-05T08:13:53.668Z,17.57
2017-09-05T08:15:03.946Z,17.63
2017-09-05T08:16:14.257Z,17.59
2017-09-05T08:17:24.580Z,17.65
2017-09-05T08:18:34.894Z,17.78
2017-09-05T08:19:44.848Z,18
2017-09-05T08:20:54.802Z,18.06
2017-09-05T08:22:04.777Z,18.33
2017-09-05T08:23:14.766Z,18.51
2017-09-05T08:24:25.084Z,18.67
2017-09-05T08:25:35.312Z,18.78
2017-09-05T08:26:45.632Z,18.96
2017-09-05T08:27:55.909Z,19.01
2017-09-05T08:29:06.317Z,19.3
2017-09-05T08:30:16.822Z,19.48
2017-09-05T08:31:26.758Z,19.56
2017-09-05T08:32:36.409Z,19.71
2017-09-05T08:33:46.712Z,19.82
2017-09-05T08:34:56.676Z,20
2017-09-05T08:36:06.647Z,20.1
2017-09-05T08:37:17.200Z,20.18
2017-09-05T08:38:27.183Z,20.29
2017-09-05T08:39:37.144Z,20.52
2017-09-05T08:40:47.449Z,20.5
2017-09-05T08:41:57.802Z,20.34
2017-09-05T08:43:08.333Z,20.27
2017-09-05T08:44:18.318Z,20.53
2017-09-05T08:45:28.627Z,20.68
2017-09-05T08:46:38.929Z,20.89
2017-09-05T08:47:49.210Z,20.7
2017-09-05T08:48:59.745Z,20.55
2017-09-05T08:50:10.022Z,20.48
2017-09-05T08:51:20.309Z,20.39
2017-09-05T08:52:30.313Z,20.34
2017-09-05T08:53:40.618Z,20.26
2017-09-05T08:54:51.167Z,20.42
2017-09-05T08:56:01.497Z,20.53
2017-09-05T08:57:11.798Z,20.66
2017-09-05T08:58:22.127Z,20.75
2017-09-05T08:59:32.123Z,21.07
2017-09-05T09:00:42.663Z,21.19
2017-09-05T09:01:52.877Z,21.29
2017-09-05T09:03:03.404Z,21.29
2017-09-05T09:04:13.699Z,21.13
2017-09-05T09:05:23.993Z,20.92
2017-09-05T09:06:34.217Z,20.67
2017-09-05T09:07:44.503Z,20.6
2017-09-05T09:08:54.817Z,20.56
2017-09-05T09:10:05.136Z,20.63
2017-09-05T09:11:15.435Z,20.74
2017-09-05T09:12:25.681Z,20.88
2017-09-05T09:13:35.984Z,20.86
2017-09-05T09:14:46.290Z,21
2017-09-05T09:15:56.605Z,21.15
2017-09-05T09:17:06.938Z,21.22
2017-09-05T09:18:17.171Z,21.32
2017-09-05T09:19:26.826Z,21.6
2017-09-05T09:20:36.809Z,21.83
2017-09-05T09:21:46.837Z,21.83
2017-09-05T09:22:56.504Z,21.74
2017-09-05T09:24:07.073Z,21.72
2017-09-05T09:25:17.359Z,21.75
2017-09-05T09:26:27.343Z,21.8
2017-09-05T09:27:37.325Z,21.65
2017-09-05T09:28:47.298Z,21.84
2017-09-05T09:29:57.710Z,21.96
2017-09-05T09:31:08.012Z,22.15
2017-09-05T09:32:17.994Z,22.34
2017-09-05T09:33:28.325Z,22.3
2017-09-05T09:34:38.605Z,22.15
2017-09-05T09:35:49.138Z,22.16
2017-09-05T09:36:59.448Z,22.34
2017-09-05T09:38:09.748Z,22.34
2017-09-05T09:39:20.034Z,22.43
2017-09-05T09:40:29.993Z,22.53
2017-09-05T09:41:40.576Z,22.41
2017-09-05T09:42:50.883Z,22.37
2017-09-05T09:44:00.864Z,22.38
2017-09-05T09:45:10.829Z,22.61
2017-09-05T09:46:20.796Z,22.81
2017-09-05T09:47:31.352Z,22.91
2017-09-05T09:48:41.331Z,22.74
2017-09-05T09:49:51.637Z,22.58
2017-09-05T09:51:01.618Z,22.47
2017-09-05T09:52:11.589Z,22.61
2017-09-05T09:53:22.151Z,22.56
2017-09-05T09:54:32.476Z,22.47
2017-09-05T09:55:42.784Z,22.44
2017-09-05T09:56:53.077Z,22.28
2017-09-05T09:58:03.361Z,22.19
2017-09-05T09:59:13.913Z,22.22
2017-09-05T10:00:23.903Z,22.4
2017-09-05T10:01:33.893Z,22.52
2017-09-05T10:02:44.204Z,22.68
2017-09-05T10:03:54.500Z,22.76
2017-09-05T10:05:05.035Z,22.88
2017-09-05T10:06:14.709Z,23.02
2017-09-05T10:07:24.690Z,23.04
2017-09-05T10:08:34.660Z,23.18
2017-09-05T10:09:44.960Z,23.37
2017-09-05T10:10:55.761Z,23.45
2017-09-05T10:12:06.083Z,23.32
2017-09-05T10:13:16.079Z,23.42
2017-09-05T10:14:26.447Z,23.42
2017-09-05T10:15:36.779Z,23.13
2017-09-05T10:16:47.024Z,22.91
2017-09-05T10:17:56.996Z,22.77
2017-09-05T10:19:07.341Z,22.76
2017-09-05T10:20:17.647Z,22.61
2017-09-05T10:21:27.916Z,22.84
2017-09-05T10:22:38.489Z,22.95
2017-09-05T10:23:48.149Z,23.28
2017-09-05T10:24:58.116Z,23.48
2017-09-05T10:26:08.083Z,23.76
2017-09-05T10:27:18.060Z,23.01
2017-09-05T10:28:28.280Z,22.73
2017-09-05T10:29:38.617Z,22.88
2017-09-05T10:30:48.597Z,22.92
2017-09-05T10:31:58.572Z,23.17
2017-09-05T10:33:08.879Z,23.23
2017-09-05T10:34:19.433Z,23.07
2017-09-05T10:35:29.731Z,23.01
2017-09-05T10:36:39.699Z,23.06
2017-09-05T10:37:49.680Z,23.07
2017-09-05T10:38:59.975Z,23.06
2017-09-05T10:40:10.194Z,23.13
2017-09-05T10:41:20.155Z,23.33
2017-09-05T10:42:30.434Z,23.66
2017-09-05T10:43:40.728Z,23.63
2017-09-05T10:44:50.683Z,23.79
2017-09-05T10:46:00.955Z,23.96
2017-09-05T10:47:11.302Z,23.94
2017-09-05T10:48:21.606Z,24.18
2017-09-05T10:49:31.591Z,24.13
2017-09-05T10:50:42.111Z,24.16
2017-09-05T10:51:52.688Z,24.41
2017-09-05T10:53:02.673Z,24.62
2017-09-05T10:54:12.035Z,24.47
2017-09-05T10:55:22.343Z,24.53
2017-09-05T10:56:32.331Z,24.51
2017-09-05T10:57:42.561Z,24.24
2017-09-05T10:58:52.556Z,24.11
2017-09-05T11:00:02.866Z,24.14
2017-09-05T11:01:13.195Z,24.22
2017-09-05T11:02:23.657Z,24.34
2017-09-05T11:03:34.196Z,24.25
2017-09-05T11:04:44.191Z,24.32
2017-09-05T11:05:54.164Z,24.26
2017-09-05T11:07:04.139Z,24.48
2017-09-05T11:08:14.469Z,24.68
2017-09-05T11:09:25.005Z,24.36
2017-09-05T11:10:35.279Z,24.32
2017-09-05T11:11:45.257Z,24.25
2017-09-05T11:12:55.554Z,24.04
2017-09-05T11:14:05.530Z,24.07
2017-09-05T11:15:15.754Z,24.32
2017-09-05T11:16:26.039Z,24.51
2017-09-05T11:17:36.038Z,24.69
2017-09-05T11:18:46.052Z,24.78
2017-09-05T11:19:56.367Z,24.79
2017-09-05T11:21:06.620Z,24.79
2017-09-05T11:22:16.918Z,25.01
2017-09-05T11:23:27.220Z,25.43
2017-09-05T11:24:37.190Z,25.76
2017-09-05T11:25:47.153Z,26.13
2017-09-05T11:26:57.709Z,26.45
2017-09-05T11:28:07.062Z,26.16
2017-09-05T11:29:17.381Z,25.37
2017-09-05T11:30:27.691Z,25.24
2017-09-05T11:31:38.185Z,25.04
2017-09-05T11:32:48.757Z,25.09
2017-09-05T11:33:58.745Z,25.29
2017-09-05T11:35:08.735Z,25.01
2017-09-05T11:36:18.727Z,24.92
2017-09-05T11:37:28.710Z,25.15
2017-09-05T11:38:39.251Z,25.03
2017-09-05T11:39:49.529Z,25.39
2017-09-05T11:40:59.845Z,25.36
2017-09-05T11:42:10.195Z,25.51
2017-09-05T11:43:19.848Z,25.93
2017-09-05T11:44:30.423Z,26.29
2017-09-05T11:45:40.747Z,25.85
2017-09-05T11:46:50.416Z,25.71
2017-09-05T11:48:00.739Z,25.71
2017-09-05T11:49:10.763Z,25.48
2017-09-05T11:50:21.365Z,25.01
2017-09-05T11:51:31.057Z,24.85
2017-09-05T11:52:41.075Z,24.84
2017-09-05T11:53:51.420Z,25.25
2017-09-05T11:55:01.832Z,25.8
2017-09-05T11:56:12.107Z,25.99
2017-09-05T11:57:22.701Z,26.23
2017-09-05T11:58:32.694Z,26.67
2017-09-05T11:59:43.002Z,26.96
2017-09-05T12:00:52.697Z,26.59
2017-09-05T12:02:02.945Z,26.04
2017-09-05T12:03:13.252Z,25.19
2017-09-05T12:04:23.596Z,24.99
2017-09-05T12:05:33.914Z,24.79
2017-09-05T12:06:44.249Z,24.29
2017-09-05T12:07:54.811Z,24.21
2017-09-05T12:09:04.497Z,24.46
2017-09-05T12:10:14.456Z,24.65
2017-09-05T12:11:24.740Z,24.86
2017-09-05T12:12:34.099Z,24.89
2017-09-05T12:13:44.331Z,24.81
2017-09-05T12:14:54.684Z,24.81
2017-09-05T12:16:04.695Z,24.84
2017-09-05T12:17:15.001Z,25.01
2017-09-05T12:18:24.983Z,25.22
2017-09-05T12:19:35.543Z,25.36
2017-09-05T12:20:45.196Z,25.52
2017-09-05T12:21:55.503Z,25.26
2017-09-05T12:23:05.493Z,24.85
2017-09-05T12:24:15.786Z,25.01
2017-09-05T12:25:26.334Z,25.25
2017-09-05T12:26:36.608Z,25.11
2017-09-05T12:27:46.583Z,25.14
2017-09-05T12:28:56.565Z,25.39
2017-09-05T12:30:06.530Z,25.36
2017-09-05T12:31:17.131Z,25.46
2017-09-05T12:32:27.116Z,25.8
2017-09-05T12:33:37.411Z,26.33
2017-09-05T12:34:47.723Z,26.97
2017-09-05T12:35:58.029Z,27.33
2017-09-05T12:37:08.586Z,27.23
2017-09-05T12:38:18.901Z,27.47
2017-09-05T12:39:29.206Z,27.33
2017-09-05T12:40:39.212Z,26.91
2017-09-05T12:41:49.184Z,26.74
2017-09-05T12:42:59.431Z,27.03
2017-09-05T12:44:09.736Z,26.96
2017-09-05T12:45:20.027Z,26.33
2017-09-05T12:46:30.322Z,26.07
2017-09-05T12:47:40.607Z,26.03
2017-09-05T12:48:51.164Z,26.31
2017-09-05T12:50:01.459Z,26.01
2017-09-05T12:51:11.758Z,25.76
2017-09-05T12:52:22.058Z,25.22
2017-09-05T12:53:32.366Z,25.01
2017-09-05T12:54:42.584Z,24.86
2017-09-05T12:55:52.872Z,24.77
2017-09-05T12:57:03.156Z,24.78
2017-09-05T12:58:13.132Z,24.88
2017-09-05T12:59:23.429Z,25.04
2017-09-05T13:00:33.974Z,25.25
2017-09-05T13:01:43.315Z,25.8
2017-09-05T13:02:52.981Z,26.29
2017-09-05T13:04:02.968Z,26.73
2017-09-05T13:05:13.274Z,26.79
2017-09-05T13:06:23.515Z,26.61
2017-09-05T13:07:33.497Z,26.45
2017-09-05T13:08:43.439Z,26.74
2017-09-05T13:09:53.117Z,26.98
2017-09-05T13:11:03.393Z,26.67
2017-09-05T13:12:13.616Z,26.34
2017-09-05T13:13:23.912Z,26.1
2017-09-05T13:14:34.210Z,25.92
2017-09-05T13:15:44.192Z,25.91
2017-09-05T13:16:54.496Z,26.19
2017-09-05T13:18:04.739Z,26.15
2017-09-05T13:19:14.724Z,26.06
2017-09-05T13:20:24.995Z,26.29
2017-09-05T13:21:35.285Z,26.89
2017-09-05T13:22:45.578Z,27.38
2017-09-05T13:23:55.186Z,27.9
2017-09-05T13:25:04.843Z,27.95
2017-09-05T13:26:14.827Z,27.95
2017-09-05T13:27:24.801Z,27.72
2017-09-05T13:28:35.085Z,27.52
2017-09-05T13:29:45.018Z,27.61
2017-09-05T13:30:55.020Z,27.76
2017-09-05T13:32:04.676Z,27.57
2017-09-05T13:33:14.350Z,27.41
2017-09-05T13:34:24.658Z,27.33
2017-09-05T13:35:35.247Z,27.55
2017-09-05T13:36:45.743Z,27.26
2017-09-05T13:37:56.089Z,27.35
2017-09-05T13:39:06.055Z,26.86
2017-09-05T13:40:16.363Z,26.55
2017-09-05T13:41:26.921Z,26.22
2017-09-05T13:42:37.206Z,26.18
2017-09-05T13:43:47.511Z,26.39
2017-09-05T13:44:57.493Z,26.61
2017-09-05T13:46:07.803Z,26.67
2017-09-05T13:47:18.359Z,26.56
2017-09-05T13:48:28.658Z,26.46
2017-09-05T13:49:38.959Z,26.19
2017-09-05T13:50:49.239Z,26.23
2017-09-05T13:51:59.236Z,26.37
2017-09-05T13:53:09.778Z,26.23
2017-09-05T13:54:19.763Z,25.88
2017-09-05T13:55:30.053Z,25.86
2017-09-05T13:56:40.036Z,26.01
2017-09-05T13:57:50.330Z,26.36
2017-09-05T13:59:00.859Z,26.68
2017-09-05T14:00:10.514Z,26.46
2017-09-05T14:01:20.813Z,26.29
2017-09-05T14:02:31.108Z,26.19
2017-09-05T14:03:41.402Z,25.85
2017-09-05T14:04:51.934Z,25.89
2017-09-05T14:06:02.267Z,25.83
2017-09-05T14:07:12.557Z,25.76
2017-09-05T14:08:22.863Z,25.92
2017-09-05T14:09:33.188Z,25.89
2017-09-05T14:10:43.784Z,25.96
2017-09-05T14:11:53.783Z,26.41
2017-09-05T14:13:04.083Z,26.52
2017-09-05T14:14:14.370Z,26.48
2017-09-05T14:15:24.369Z,26.7
2017-09-05T14:16:34.962Z,26.36
2017-09-05T14:17:45.243Z,26.01
2017-09-05T14:18:55.539Z,26.23
2017-09-05T14:20:05.838Z,26.3
2017-09-05T14:21:16.176Z,26.41
2017-09-05T14:22:26.719Z,26.37
2017-09-05T14:23:37.020Z,26.33
2017-09-05T14:24:47.700Z,26.06
2017-09-05T14:25:57.989Z,25.92
2017-09-05T14:27:07.996Z,26.3
2017-09-05T14:28:18.554Z,26.63
2017-09-05T14:29:28.851Z,26.7
2017-09-05T14:30:38.812Z,26.7
2017-09-05T14:31:48.827Z,26.67
2017-09-05T14:32:59.105Z,26.51
2017-09-05T14:34:09.669Z,26.29
2017-09-05T14:35:19.994Z,26.03
2017-09-05T14:36:30.295Z,26.34
2017-09-05T14:37:40.260Z,26.51
2017-09-05T14:38:50.553Z,26.55
2017-09-05T14:40:00.837Z,26.74
2017-09-05T14:41:11.121Z,26.89
2017-09-05T14:42:21.463Z,26.67
2017-09-05T14:43:31.765Z,26.44
2017-09-05T14:44:41.734Z,26.23
2017-09-05T14:45:52.267Z,26.23
2017-09-05T14:47:02.555Z,26.3
2017-09-05T14:48:11.921Z,26.56
2017-09-05T14:49:22.209Z,26.67
2017-09-05T14:50:32.515Z,26.85
2017-09-05T14:51:42.740Z,26.73
2017-09-05T14:52:52.752Z,26.51
2017-09-05T14:54:02.761Z,26.24
2017-09-05T14:55:13.072Z,26.16
2017-09-05T14:56:23.376Z,26.03
2017-09-05T14:57:33.930Z,26.31
2017-09-05T14:58:43.911Z,26.64
2017-09-05T14:59:53.878Z,26.92
2017-09-05T15:01:03.852Z,27.15
2017-09-05T15:02:14.154Z,26.79
2017-09-05T15:03:24.720Z,26.16
2017-09-05T15:04:34.697Z,25.76
2017-09-05T15:05:44.994Z,25.62
2017-09-05T15:06:55.301Z,25.67